createdAt,value
2022-09-28T00:00:03.349Z,1.97
2022-09-28T00:02:31.668Z,1.60
2022-09-28T00:05:01.315Z,2.00
2022-09-28T00:07:29.672Z,2.00
2022-09-28T00:09:57.889Z,1.70
2022-09-28T00:12:26.148Z,1.47
2022-09-28T00:14:54.408Z,2.07
2022-09-28T00:17:23.645Z,1.80
2022-09-28T00:19:51.815Z,1.67
2022-09-28T00:22:21.328Z,1.87
2022-09-28T00:24:49.519Z,1.90
2022-09-28T00:27:18.064Z,2.20
2022-09-28T00:29:46.254Z,3.23
2022-09-28T00:32:15.561Z,3.00
2022-09-28T00:34:45.910Z,2.60
2022-09-28T00:37:14.994Z,3.60
2022-09-28T00:39:44.540Z,2.97
2022-09-28T00:42:13.780Z,4.07
2022-09-28T00:44:43.738Z,4.60
2022-09-28T00:47:20.486Z,4.00
2022-09-28T00:49:51.564Z,4.47
2022-09-28T00:52:21.700Z,4.57
2022-09-28T00:54:52.166Z,4.50
2022-09-28T00:57:20.804Z,5.47
2022-09-28T00:59:49.477Z,3.57
2022-09-28T01:02:17.733Z,4.30
2022-09-28T01:04:45.989Z,3.80
2022-09-28T01:07:14.773Z,4.40
2022-09-28T01:09:45.826Z,4.30
2022-09-28T01:12:15.329Z,4.40
2022-09-28T01:14:44.877Z,4.63
2022-09-28T01:17:16.335Z,3.40
2022-09-28T01:19:59.408Z,4.40
2022-09-28T01:22:32.632Z,3.70
2022-09-28T01:25:03.053Z,3.67
2022-09-28T01:27:34.178Z,4.90
2022-09-28T01:30:05.486Z,5.30
2022-09-28T01:32:37.151Z,4.70
2022-09-28T01:35:07.465Z,5.07
2022-09-28T01:37:40.965Z,4.80
2022-09-28T01:40:11.235Z,4.27
2022-09-28T01:42:41.436Z,4.63
2022-09-28T01:45:13.190Z,4.10
2022-09-28T01:47:41.833Z,6.17
2022-09-28T01:50:12.549Z,3.67
2022-09-28T01:52:43.893Z,3.30
2022-09-28T01:55:13.653Z,3.80
2022-09-28T01:57:44.739Z,4.50
2022-09-28T02:00:14.742Z,4.50
2022-09-28T02:02:45.674Z,3.70
2022-09-28T02:05:16.093Z,4.17
2022-09-28T02:07:46.439Z,4.40
2022-09-28T02:10:15.960Z,4.13
2022-09-28T02:12:48.210Z,4.20
2022-09-28T02:15:19.782Z,4.10
2022-09-28T02:17:48.241Z,4.03
2022-09-28T02:20:16.919Z,4.40
2022-09-28T02:22:47.506Z,4.70
2022-09-28T02:25:21.472Z,4.60
2022-09-28T02:27:55.176Z,5.07
2022-09-28T02:30:23.415Z,5.70
2022-09-28T02:32:53.579Z,5.10
2022-09-28T02:35:21.793Z,4.40
2022-09-28T02:37:50.888Z,4.67
2022-09-28T02:40:20.088Z,5.50
2022-09-28T02:42:54.857Z,7.83
2022-09-28T02:45:31.591Z,6.23
2022-09-28T02:48:04.953Z,6.00
2022-09-28T02:50:37.508Z,7.93
2022-09-28T02:53:26.626Z,6.20
2022-09-28T02:56:00.863Z,6.20
2022-09-28T02:58:35.917Z,6.10
2022-09-28T03:01:11.428Z,6.17
2022-09-28T03:03:43.267Z,6.47
2022-09-28T03:06:13.003Z,6.50
2022-09-28T03:08:43.011Z,6.00
2022-09-28T03:11:14.446Z,6.00
2022-09-28T03:13:43.129Z,6.17
2022-09-28T03:16:14.120Z,6.67
2022-09-28T03:18:43.100Z,6.30
2022-09-28T03:21:12.576Z,7.07
2022-09-28T03:23:41.123Z,5.90
2022-09-28T03:26:09.704Z,6.00
2022-09-28T03:28:37.876Z,5.97
2022-09-28T03:31:06.109Z,5.43
2022-09-28T03:33:35.657Z,5.37
2022-09-28T03:36:03.839Z,6.60
2022-09-28T03:38:31.988Z,5.87
2022-09-28T03:41:01.517Z,7.30
2022-09-28T03:43:32.623Z,5.63
2022-09-28T03:46:01.878Z,6.67
2022-09-28T03:48:32.608Z,4.73
2022-09-28T03:51:07.126Z,6.57
2022-09-28T03:53:35.393Z,5.00
2022-09-28T03:56:04.441Z,6.03
2022-09-28T03:58:32.654Z,5.80
2022-09-28T04:01:04.286Z,5.50
2022-09-28T04:03:32.769Z,4.90
2022-09-28T04:06:00.997Z,5.10
2022-09-28T04:08:30.658Z,4.37
2022-09-28T04:10:59.159Z,4.40
2022-09-28T04:13:27.686Z,4.17
2022-09-28T04:15:56.392Z,5.57
2022-09-28T04:18:25.191Z,4.47
2022-09-28T04:21:00.032Z,4.50
2022-09-28T04:23:30.408Z,5.93
2022-09-28T04:25:59.657Z,5.10
2022-09-28T04:28:45.544Z,4.63
2022-09-28T04:31:14.998Z,4.90
2022-09-28T04:33:43.273Z,5.20
2022-09-28T04:36:11.782Z,5.30
2022-09-28T04:38:52.949Z,6.80
2022-09-28T04:41:22.863Z,5.93
2022-09-28T04:43:51.642Z,8.60
2022-09-28T04:46:20.261Z,9.50
2022-09-28T04:48:48.490Z,7.43
2022-09-28T04:51:16.787Z,7.70
2022-09-28T04:53:46.432Z,6.93
2022-09-28T04:56:15.175Z,8.07
2022-09-28T04:58:43.682Z,8.37
2022-09-28T05:01:13.224Z,6.47
2022-09-28T05:03:41.809Z,5.60
2022-09-28T05:06:13.313Z,8.73
2022-09-28T05:08:41.489Z,8.50
2022-09-28T05:11:13.079Z,8.53
2022-09-28T05:13:42.683Z,8.07
2022-09-28T05:16:11.452Z,8.10
2022-09-28T05:18:40.068Z,7.70
2022-09-28T05:21:12.666Z,7.70
2022-09-28T05:23:41.029Z,8.90
2022-09-28T05:26:10.560Z,7.63
2022-09-28T05:28:38.771Z,6.87
2022-09-28T05:31:07.459Z,7.40
2022-09-28T05:33:36.281Z,7.53
2022-09-28T05:36:04.613Z,7.67
2022-09-28T05:38:32.821Z,7.90
2022-09-28T05:41:05.702Z,7.03
2022-09-28T05:43:36.253Z,8.83
2022-09-28T05:46:04.640Z,8.50
2022-09-28T05:48:32.874Z,8.03
2022-09-28T05:51:01.554Z,8.20
2022-09-28T05:53:29.740Z,6.83
2022-09-28T05:55:59.769Z,8.60
2022-09-28T05:58:28.036Z,9.70
2022-09-28T06:00:58.110Z,9.63
2022-09-28T06:03:26.968Z,7.90
2022-09-28T06:05:55.239Z,8.70
2022-09-28T06:08:23.571Z,8.67
2022-09-28T06:10:52.159Z,8.00
2022-09-28T06:13:20.691Z,9.47
2022-09-28T06:15:48.915Z,8.53
2022-09-28T06:18:18.504Z,7.10
2022-09-28T06:20:46.709Z,8.30
2022-09-28T06:23:15.202Z,7.63
2022-09-28T06:25:43.399Z,8.67
2022-09-28T06:28:12.618Z,6.77
2022-09-28T06:30:41.808Z,7.20
2022-09-28T06:33:12.513Z,7.40
2022-09-28T06:35:42.419Z,8.83
2022-09-28T06:38:11.004Z,7.97
2022-09-28T06:40:39.558Z,7.77
2022-09-28T06:43:10.361Z,7.60
2022-09-28T06:45:39.059Z,7.00
2022-09-28T06:48:07.646Z,6.20
2022-09-28T06:50:37.505Z,7.03
2022-09-28T06:53:09.387Z,7.53
2022-09-28T06:55:40.067Z,7.70
2022-09-28T06:58:09.356Z,7.13
2022-09-28T07:00:38.574Z,5.80
2022-09-28T07:03:07.884Z,5.60
2022-09-28T07:05:37.171Z,5.43
2022-09-28T07:08:06.751Z,6.63
2022-09-28T07:10:35.109Z,7.10
2022-09-28T07:13:08.258Z,6.50
2022-09-28T07:15:40.085Z,5.67
2022-09-28T07:18:09.045Z,7.50
2022-09-28T07:20:48.234Z,7.50
2022-09-28T07:23:21.544Z,8.40
2022-09-28T07:25:50.192Z,6.40
2022-09-28T07:28:18.600Z,6.70
2022-09-28T07:30:46.945Z,6.27
2022-09-28T07:33:16.036Z,6.70
2022-09-28T07:35:51.123Z,7.20
2022-09-28T07:38:19.845Z,6.37
2022-09-28T07:41:07.029Z,6.40
2022-09-28T07:43:35.304Z,6.70
2022-09-28T07:46:03.534Z,6.87
2022-09-28T07:48:36.621Z,6.30
2022-09-28T07:51:05.257Z,6.17
2022-09-28T07:53:33.663Z,6.50
2022-09-28T07:56:07.919Z,5.60
2022-09-28T07:58:36.646Z,6.50
2022-09-28T08:01:06.412Z,5.20
2022-09-28T08:03:34.856Z,6.10
2022-09-28T08:06:03.898Z,6.97
2022-09-28T08:08:32.264Z,6.67
2022-09-28T08:11:00.629Z,6.47
2022-09-28T08:13:31.014Z,7.53
2022-09-28T08:16:02.110Z,7.17
2022-09-28T08:18:30.337Z,5.80
2022-09-28T08:21:16.602Z,5.80
2022-09-28T08:23:44.838Z,5.63
2022-09-28T08:26:15.536Z,6.33
2022-09-28T08:28:47.632Z,5.03
2022-09-28T08:31:15.865Z,7.10
2022-09-28T08:33:44.096Z,6.30
2022-09-28T08:36:12.326Z,7.10
2022-09-28T08:38:40.501Z,5.83
2022-09-28T08:41:13.389Z,6.60
2022-09-28T08:43:47.871Z,4.63
2022-09-28T08:46:17.800Z,6.40
2022-09-28T08:49:13.322Z,6.53
2022-09-28T08:51:45.617Z,6.20
2022-09-28T08:54:19.761Z,5.10
2022-09-28T08:56:50.250Z,5.90
2022-09-28T08:59:21.273Z,5.80
2022-09-28T09:01:56.425Z,7.40
2022-09-28T09:04:25.704Z,5.63
2022-09-28T09:07:03.785Z,5.73
2022-09-28T09:09:37.770Z,5.93
2022-09-28T09:12:09.439Z,5.30
2022-09-28T09:14:58.274Z,6.00
2022-09-28T09:17:34.820Z,5.20
2022-09-28T09:20:07.970Z,5.13
2022-09-28T09:22:40.880Z,4.93
2022-09-28T09:25:19.136Z,4.53
2022-09-28T09:27:54.809Z,4.37
2022-09-28T09:30:25.120Z,4.73
2022-09-28T09:33:05.098Z,4.33
2022-09-28T09:35:51.997Z,4.13
2022-09-28T09:38:31.162Z,4.50
2022-09-28T09:41:05.315Z,4.87
2022-09-28T09:43:45.556Z,3.80
2022-09-28T09:46:16.861Z,4.50
2022-09-28T09:48:49.885Z,3.30
2022-09-28T09:51:21.634Z,3.80
2022-09-28T09:53:51.838Z,4.23
2022-09-28T09:56:22.960Z,3.73
2022-09-28T09:58:53.915Z,3.03
2022-09-28T10:01:24.631Z,2.00
2022-09-28T10:03:54.527Z,3.37
2022-09-28T10:06:25.048Z,3.00
2022-09-28T10:08:55.317Z,3.73
2022-09-28T10:11:27.718Z,4.20
2022-09-28T10:13:55.947Z,3.27
2022-09-28T10:16:24.374Z,4.10
2022-09-28T10:18:53.967Z,2.80
2022-09-28T10:21:24.100Z,2.23
2022-09-28T10:23:56.845Z,3.17
2022-09-28T10:26:26.409Z,2.60
2022-09-28T10:28:58.073Z,2.93
2022-09-28T10:31:36.510Z,2.67
2022-09-28T10:34:06.914Z,1.93
2022-09-28T10:36:38.574Z,2.10
2022-09-28T10:39:07.385Z,2.40
2022-09-28T10:41:35.662Z,3.30
2022-09-28T10:44:08.891Z,2.50
2022-09-28T10:46:37.645Z,2.10
2022-09-28T10:49:09.534Z,2.60
2022-09-28T10:51:45.066Z,3.40
2022-09-28T10:54:16.697Z,1.70
2022-09-28T10:56:45.544Z,2.27
2022-09-28T10:59:32.870Z,2.50
2022-09-28T11:02:03.246Z,2.00
2022-09-28T11:04:38.659Z,2.40
2022-09-28T11:07:17.258Z,2.43
2022-09-28T11:09:48.783Z,2.60
2022-09-28T11:12:20.316Z,2.67
2022-09-28T11:14:52.686Z,2.67
2022-09-28T11:17:29.526Z,2.20
2022-09-28T11:20:00.254Z,2.60
2022-09-28T11:22:30.383Z,2.60
2022-09-28T11:25:13.642Z,2.33
2022-09-28T11:27:41.853Z,2.13
2022-09-28T11:30:23.097Z,2.83
2022-09-28T11:32:53.109Z,2.63
2022-09-28T11:35:24.021Z,2.37
2022-09-28T11:37:57.321Z,2.30
2022-09-28T11:40:30.428Z,2.10
2022-09-28T11:45:46.970Z,2.70
2022-09-28T11:48:18.858Z,6.37
2022-09-28T11:50:50.308Z,6.00
2022-09-28T11:53:21.997Z,14.83
2022-09-28T11:55:53.450Z,7.80
2022-09-28T11:58:24.949Z,10.17
2022-09-28T12:00:54.898Z,3.30
2022-09-28T12:03:25.083Z,2.30
2022-09-28T12:05:58.989Z,2.20
2022-09-28T12:08:29.205Z,2.97
2022-09-28T12:10:59.470Z,2.97
2022-09-28T12:13:28.702Z,2.67
2022-09-28T12:18:50.922Z,3.20
2022-09-28T12:21:34.042Z,2.50
2022-09-28T12:24:05.509Z,3.47
2022-09-28T12:26:37.991Z,2.70
2022-09-28T12:29:08.701Z,2.57
2022-09-28T12:31:39.544Z,1.83
2022-09-28T12:34:07.886Z,2.20
2022-09-28T12:36:41.475Z,2.40
2022-09-28T12:39:35.467Z,2.73
2022-09-28T12:42:14.973Z,2.77
2022-09-28T12:44:59.568Z,2.60
2022-09-28T12:47:38.951Z,3.40
2022-09-28T12:50:37.983Z,2.80
2022-09-28T12:53:09.716Z,2.53
2022-09-28T12:55:47.853Z,2.33
2022-09-28T12:58:24.313Z,2.60
2022-09-28T13:00:57.968Z,2.63
2022-09-28T13:03:53.058Z,2.77
2022-09-28T13:06:27.014Z,2.77
2022-09-28T13:09:02.274Z,2.50
2022-09-28T13:11:34.279Z,2.90
2022-09-28T13:14:11.925Z,3.57
2022-09-28T13:16:41.889Z,3.37
2022-09-28T13:19:16.061Z,3.00
2022-09-28T13:21:48.954Z,3.00
2022-09-28T13:24:32.087Z,3.37
2022-09-28T13:27:05.401Z,3.27
2022-09-28T13:29:34.874Z,4.00
2022-09-28T13:32:04.740Z,3.67
2022-09-28T13:34:35.292Z,3.83
2022-09-28T13:37:11.294Z,3.23
2022-09-28T13:39:48.808Z,2.97
2022-09-28T13:42:26.449Z,2.73
2022-09-28T13:45:12.601Z,4.10
2022-09-28T13:47:47.762Z,3.33
2022-09-28T13:50:19.610Z,5.10
2022-09-28T13:52:49.693Z,4.20
2022-09-28T13:55:26.514Z,3.50
2022-09-28T13:57:58.304Z,3.73
2022-09-28T14:00:28.750Z,3.97
2022-09-28T14:03:01.405Z,3.97
2022-09-28T14:05:46.237Z,3.37
2022-09-28T14:08:33.564Z,3.47
2022-09-28T14:11:16.705Z,3.17
2022-09-28T14:14:01.891Z,3.43
2022-09-28T14:16:32.122Z,3.70
2022-09-28T14:19:03.118Z,3.40
2022-09-28T14:21:49.283Z,3.30
2022-09-28T14:24:23.296Z,1.87
2022-09-28T14:27:04.126Z,2.83
2022-09-28T14:29:35.457Z,3.57
2022-09-28T14:32:06.533Z,2.90
2022-09-28T14:34:36.975Z,3.17
2022-09-28T14:37:24.322Z,2.20
2022-09-28T14:40:10.145Z,2.13
2022-09-28T14:42:38.428Z,2.20
2022-09-28T14:45:26.161Z,1.90
2022-09-28T14:48:14.125Z,1.30
2022-09-28T14:50:42.507Z,1.50
2022-09-28T14:53:15.341Z,1.87
2022-09-28T14:55:50.087Z,1.20
2022-09-28T14:58:22.419Z,1.70
2022-09-28T15:00:52.069Z,1.60
2022-09-28T15:03:22.789Z,1.40
2022-09-28T15:05:51.106Z,1.60
2022-09-28T15:08:22.506Z,1.60
2022-09-28T15:10:52.485Z,1.17
2022-09-28T15:13:23.181Z,1.43
2022-09-28T15:15:54.674Z,1.40
2022-09-28T15:18:43.796Z,1.43
2022-09-28T15:21:13.704Z,3.30
2022-09-28T15:23:43.256Z,1.50
2022-09-28T15:26:22.576Z,1.50
2022-09-28T15:28:50.835Z,1.80
2022-09-28T15:31:19.919Z,1.53
2022-09-28T15:34:06.361Z,1.53
2022-09-28T15:36:37.330Z,1.47
2022-09-28T15:39:06.818Z,0.97
2022-09-28T15:41:35.427Z,1.53
2022-09-28T15:44:08.414Z,2.03
2022-09-28T15:46:37.939Z,1.47
2022-09-28T15:49:07.498Z,1.90
2022-09-28T15:51:49.920Z,2.27
2022-09-28T15:54:19.634Z,1.90
2022-09-28T15:56:57.737Z,1.70
2022-09-28T15:59:29.447Z,2.03
2022-09-28T16:02:08.168Z,2.77
2022-09-28T16:04:38.197Z,2.90
2022-09-28T16:07:18.903Z,3.10
2022-09-28T16:10:14.349Z,2.57
2022-09-28T16:12:44.418Z,2.83
2022-09-28T16:15:20.199Z,2.37
2022-09-28T16:17:52.263Z,2.33
2022-09-28T16:20:23.295Z,2.60
2022-09-28T16:22:53.606Z,2.63
2022-09-28T16:25:23.902Z,3.10
2022-09-28T16:27:55.040Z,2.90
2022-09-28T16:30:25.115Z,2.10
2022-09-28T16:32:54.293Z,2.27
2022-09-28T16:35:25.400Z,2.67
2022-09-28T16:38:00.358Z,2.70
2022-09-28T16:40:29.456Z,1.97
2022-09-28T16:42:59.906Z,2.07
2022-09-28T16:45:28.553Z,1.60
2022-09-28T16:47:57.485Z,1.30
2022-09-28T16:50:26.134Z,1.00
2022-09-28T16:53:26.885Z,1.43
2022-09-28T16:55:55.038Z,1.40
2022-09-28T16:58:23.789Z,1.77
2022-09-28T17:00:53.351Z,1.97
2022-09-28T17:03:23.297Z,1.73
2022-09-28T17:05:52.068Z,1.90
2022-09-28T17:08:22.827Z,2.13
2022-09-28T17:11:15.852Z,1.87
2022-09-28T17:13:43.925Z,1.73
2022-09-28T17:16:13.611Z,1.90
2022-09-28T17:18:42.852Z,1.80
2022-09-28T17:21:12.924Z,1.90
2022-09-28T17:23:42.521Z,1.90
2022-09-28T17:26:15.095Z,1.97
2022-09-28T17:28:43.676Z,1.70
2022-09-28T17:31:13.771Z,1.50
2022-09-28T17:33:41.995Z,2.40
2022-09-28T17:36:14.677Z,3.10
2022-09-28T17:38:44.406Z,1.97
2022-09-28T17:41:16.801Z,2.37
2022-09-28T17:43:47.721Z,2.10
2022-09-28T17:46:22.941Z,2.03
2022-09-28T17:48:51.348Z,2.60
2022-09-28T17:51:19.587Z,2.70
2022-09-28T17:53:49.117Z,3.00
2022-09-28T17:56:17.277Z,3.30
2022-09-28T17:58:45.483Z,3.40
2022-09-28T18:01:13.728Z,3.23
2022-09-28T18:03:42.086Z,3.07
2022-09-28T18:06:14.473Z,3.10
2022-09-28T18:08:43.564Z,3.03
2022-09-28T18:11:13.173Z,3.93
2022-09-28T18:13:41.547Z,3.50
2022-09-28T18:16:11.329Z,4.30
2022-09-28T18:18:39.891Z,4.10
2022-09-28T18:21:08.174Z,5.10
2022-09-28T18:23:37.574Z,3.70
2022-09-28T18:26:06.320Z,4.47
2022-09-28T18:28:35.892Z,3.77
2022-09-28T18:31:08.177Z,3.93
2022-09-28T18:33:36.845Z,3.90
2022-09-28T18:36:05.421Z,4.03
2022-09-28T18:38:33.851Z,3.37
2022-09-28T18:41:08.426Z,3.30
2022-09-28T18:43:38.444Z,2.83
2022-09-28T18:46:07.863Z,3.20
2022-09-28T18:48:36.837Z,3.80
2022-09-28T18:51:05.501Z,2.60
2022-09-28T18:53:34.723Z,2.63
2022-09-28T18:56:07.067Z,2.50
2022-09-28T18:58:35.988Z,3.00
2022-09-28T19:01:28.969Z,3.50
2022-09-28T19:03:57.907Z,3.67
2022-09-28T19:06:26.093Z,3.80
2022-09-28T19:08:55.653Z,4.30
2022-09-28T19:11:24.373Z,5.27
2022-09-28T19:13:52.561Z,3.30
2022-09-28T19:16:23.283Z,3.27
2022-09-28T19:18:53.699Z,3.60
2022-09-28T19:21:22.612Z,3.30
2022-09-28T19:23:51.968Z,3.67
2022-09-28T19:26:21.389Z,3.40
2022-09-28T19:28:50.070Z,3.53
2022-09-28T19:31:18.683Z,3.20
2022-09-28T19:33:48.432Z,4.20
2022-09-28T19:36:18.451Z,3.60
2022-09-28T19:38:47.163Z,4.13
2022-09-28T19:41:39.553Z,4.37
2022-09-28T19:44:11.454Z,4.43
2022-09-28T19:46:40.528Z,4.60
2022-09-28T19:49:10.873Z,4.63
2022-09-28T19:51:51.544Z,4.30
2022-09-28T19:54:33.122Z,4.90
2022-09-28T19:57:07.724Z,5.93
2022-09-28T19:59:36.582Z,5.00
2022-09-28T20:02:05.162Z,5.30
2022-09-28T20:04:34.926Z,3.20
2022-09-28T20:07:03.129Z,4.50
2022-09-28T20:09:31.408Z,3.57
2022-09-28T20:11:59.577Z,4.00
2022-09-28T20:14:32.879Z,4.70
2022-09-28T20:17:04.833Z,3.87
2022-09-28T20:19:33.515Z,3.30
2022-09-28T20:22:03.445Z,3.20
2022-09-28T20:24:31.912Z,4.40
2022-09-28T20:27:02.481Z,3.43
2022-09-28T20:29:33.074Z,3.60
2022-09-28T20:32:01.405Z,3.63
2022-09-28T20:34:29.588Z,3.37
2022-09-28T20:36:57.988Z,3.37
2022-09-28T20:39:27.561Z,3.73
2022-09-28T20:41:56.204Z,6.53
2022-09-28T20:44:24.419Z,4.57
2022-09-28T20:46:52.736Z,3.80
2022-09-28T20:49:20.903Z,4.17
2022-09-28T20:51:49.077Z,4.80
2022-09-28T20:54:17.303Z,4.50
2022-09-28T20:56:48.191Z,4.10
2022-09-28T20:59:16.433Z,3.97
2022-09-28T21:01:44.877Z,4.10
2022-09-28T21:04:13.205Z,3.90
2022-09-28T21:06:42.269Z,4.10
2022-09-28T21:09:11.252Z,3.60
2022-09-28T21:11:39.787Z,4.40
2022-09-28T21:14:10.270Z,4.37
2022-09-28T21:16:38.886Z,4.43
2022-09-28T21:19:07.091Z,4.87
2022-09-28T21:21:35.307Z,4.83
2022-09-28T21:24:03.846Z,3.93
2022-09-28T21:26:32.666Z,4.17
2022-09-28T21:29:01.900Z,4.53
2022-09-28T21:31:33.665Z,4.10
2022-09-28T21:34:03.045Z,4.50
2022-09-28T21:36:31.228Z,4.13
2022-09-28T21:38:59.401Z,3.90
2022-09-28T21:41:29.072Z,4.60
2022-09-28T21:43:57.414Z,3.87
2022-09-28T21:46:26.815Z,5.00
2022-09-28T21:48:56.432Z,3.50
2022-09-28T21:51:25.029Z,3.23
2022-09-28T21:53:54.056Z,5.90
2022-09-28T21:56:22.989Z,4.60
2022-09-28T21:58:51.568Z,4.30
2022-09-28T22:01:20.776Z,4.03
2022-09-28T22:03:50.410Z,3.80
2022-09-28T22:06:20.774Z,4.50
2022-09-28T22:08:49.473Z,4.00
2022-09-28T22:11:18.298Z,3.57
2022-09-28T22:13:47.531Z,3.63
2022-09-28T22:16:16.669Z,3.67
2022-09-28T22:18:45.158Z,3.37
2022-09-28T22:21:14.614Z,3.70
2022-09-28T22:23:44.342Z,3.17
2022-09-28T22:26:13.817Z,3.93
2022-09-28T22:28:46.465Z,3.40
2022-09-28T22:31:14.825Z,4.30
2022-09-28T22:33:43.124Z,4.17
2022-09-28T22:36:11.613Z,3.03
2022-09-28T22:38:40.811Z,3.77
2022-09-28T22:41:10.548Z,4.00
2022-09-28T22:43:39.004Z,3.90
2022-09-28T22:46:08.206Z,4.53
2022-09-28T22:48:36.885Z,4.60
2022-09-28T22:51:06.152Z,4.23
2022-09-28T22:53:34.592Z,3.70
2022-09-28T22:56:04.013Z,4.00
2022-09-28T22:58:33.593Z,4.20
2022-09-28T23:01:06.789Z,3.73
2022-09-28T23:03:35.028Z,4.63
2022-09-28T23:06:03.509Z,3.80
2022-09-28T23:08:32.071Z,4.17
2022-09-28T23:11:00.442Z,4.20
2022-09-28T23:13:28.763Z,3.77
2022-09-28T23:15:59.009Z,4.00
2022-09-28T23:18:29.229Z,4.80
2022-09-28T23:20:58.341Z,4.97
2022-09-28T23:23:26.594Z,4.10
2022-09-28T23:25:55.094Z,4.47
2022-09-28T23:28:24.037Z,4.90
2022-09-28T23:30:52.797Z,4.70
2022-09-28T23:33:23.170Z,5.00
2022-09-28T23:35:53.886Z,5.20
2022-09-28T23:38:22.059Z,5.50
2022-09-28T23:40:50.316Z,5.23
2022-09-28T23:43:18.677Z,5.30
2022-09-28T23:45:47.293Z,4.70
2022-09-28T23:48:15.472Z,4.90
2022-09-28T23:50:45.047Z,5.10
2022-09-28T23:53:14.117Z,5.53
2022-09-28T23:55:43.130Z,5.73
2022-09-28T23:58:11.593Z,4.70
